sensor_id;sensor_type;location;lat;lon;timestamp;pressure;altitude;pressure_sealevel;temperature;humidity
72308;BME280;60257;42.638;23.376;2023-03-01T00:01:06;95087.66;;;5.98;79.24
72308;BME280;60257;42.638;23.376;2023-03-01T00:03:33;95075.06;;;6.02;78.74
72308;BME280;60257;42.638;23.376;2023-03-01T00:05:59;95076.03;;;6.06;78.40
72308;BME280;60257;42.638;23.376;2023-03-01T00:08:26;95080.59;;;5.97;78.55
72308;BME280;60257;42.638;23.376;2023-03-01T00:13:34;95075.59;;;5.90;78.94
72308;BME280;60257;42.638;23.376;2023-03-01T00:16:08;95075.88;;;5.89;79.15
72308;BME280;60257;42.638;23.376;2023-03-01T00:18:34;95066.59;;;5.90;79.37
72308;BME280;60257;42.638;23.376;2023-03-01T00:21:00;95059.56;;;5.89;79.16
72308;BME280;60257;42.638;23.376;2023-03-01T00:23:26;95072.25;;;5.93;79.21
72308;BME280;60257;42.638;23.376;2023-03-01T00:25:52;95053.81;;;5.90;79.41
72308;BME280;60257;42.638;23.376;2023-03-01T00:28:18;95048.97;;;5.87;79.48
72308;BME280;60257;42.638;23.376;2023-03-01T00:30:44;95039.78;;;5.83;79.03
72308;BME280;60257;42.638;23.376;2023-03-01T00:33:09;95055.00;;;5.98;79.10
72308;BME280;60257;42.638;23.376;2023-03-01T00:35:35;95044.63;;;5.86;79.28
72308;BME280;60257;42.638;23.376;2023-03-01T00:38:01;95036.66;;;5.90;78.97
72308;BME280;60257;42.638;23.376;2023-03-01T00:40:28;95038.66;;;5.98;78.86
72308;BME280;60257;42.638;23.376;2023-03-01T00:42:54;95033.50;;;5.96;78.85
72308;BME280;60257;42.638;23.376;2023-03-01T00:45:19;95027.91;;;5.93;78.85
72308;BME280;60257;42.638;23.376;2023-03-01T00:47:45;95035.16;;;5.84;79.11
72308;BME280;60257;42.638;23.376;2023-03-01T00:50:11;95031.94;;;5.81;79.54
72308;BME280;60257;42.638;23.376;2023-03-01T00:52:37;95024.19;;;5.75;79.03
72308;BME280;60257;42.638;23.376;2023-03-01T00:55:04;95033.94;;;5.90;79.17
72308;BME280;60257;42.638;23.376;2023-03-01T00:57:29;95028.84;;;5.88;79.09
72308;BME280;60257;42.638;23.376;2023-03-01T00:59:55;95027.50;;;5.86;79.02
72308;BME280;60257;42.638;23.376;2023-03-01T01:02:20;95028.19;;;5.91;78.81
72308;BME280;60257;42.638;23.376;2023-03-01T01:04:47;95028.41;;;5.95;78.62
72308;BME280;60257;42.638;23.376;2023-03-01T01:07:13;95034.16;;;5.93;78.66
72308;BME280;60257;42.638;23.376;2023-03-01T01:09:38;95029.00;;;5.92;78.65
72308;BME280;60257;42.638;23.376;2023-03-01T01:12:04;95019.13;;;5.82;78.77
72308;BME280;60257;42.638;23.376;2023-03-01T01:14:30;95012.06;;;5.81;78.63
72308;BME280;60257;42.638;23.376;2023-03-01T01:16:56;95024.56;;;5.82;78.63
72308;BME280;60257;42.638;23.376;2023-03-01T01:19:22;95024.19;;;5.75;79.13
72308;BME280;60257;42.638;23.376;2023-03-01T01:21:48;95031.84;;;5.73;79.05
72308;BME280;60257;42.638;23.376;2023-03-01T01:24:14;95018.88;;;5.70;79.28
72308;BME280;60257;42.638;23.376;2023-03-01T01:26:40;95019.84;;;5.74;78.82
72308;BME280;60257;42.638;23.376;2023-03-01T01:29:06;95033.09;;;5.67;79.24
72308;BME280;60257;42.638;23.376;2023-03-01T01:31:34;95021.72;;;5.65;78.90
72308;BME280;60257;42.638;23.376;2023-03-01T01:34:01;95027.84;;;5.70;78.69
72308;BME280;60257;42.638;23.376;2023-03-01T01:36:28;95033.50;;;5.60;78.57
72308;BME280;60257;42.638;23.376;2023-03-01T01:38:54;95040.50;;;5.53;79.04
72308;BME280;60257;42.638;23.376;2023-03-01T01:41:20;95027.50;;;5.50;79.21
72308;BME280;60257;42.638;23.376;2023-03-01T01:43:49;95037.03;;;5.61;78.71
72308;BME280;60257;42.638;23.376;2023-03-01T01:46:30;95044.91;;;5.62;78.33
72308;BME280;60257;42.638;23.376;2023-03-01T01:49:00;95031.91;;;5.59;78.28
72308;BME280;60257;42.638;23.376;2023-03-01T01:51:35;95037.53;;;5.63;77.98
72308;BME280;60257;42.638;23.376;2023-03-01T01:54:10;95030.91;;;5.55;77.82
72308;BME280;60257;42.638;23.376;2023-03-01T01:56:37;95024.00;;;5.49;77.92
72308;BME280;60257;42.638;23.376;2023-03-01T01:59:05;95023.66;;;5.51;77.96
72308;BME280;60257;42.638;23.376;2023-03-01T02:01:31;95025.69;;;5.45;78.16
72308;BME280;60257;42.638;23.376;2023-03-01T02:03:57;95031.50;;;5.52;78.24
72308;BME280;60257;42.638;23.376;2023-03-01T02:06:30;95028.19;;;5.55;77.94
72308;BME280;60257;42.638;23.376;2023-03-01T02:09:02;95018.59;;;5.58;77.43
72308;BME280;60257;42.638;23.376;2023-03-01T02:11:31;95016.50;;;5.55;77.55
72308;BME280;60257;42.638;23.376;2023-03-01T02:13:57;95015.09;;;5.57;77.68
72308;BME280;60257;42.638;23.376;2023-03-01T02:16:23;95014.47;;;5.60;77.17
72308;BME280;60257;42.638;23.376;2023-03-01T02:18:50;95008.91;;;5.65;76.58
72308;BME280;60257;42.638;23.376;2023-03-01T02:24:06;95016.88;;;5.62;77.09
72308;BME280;60257;42.638;23.376;2023-03-01T02:29:02;95027.25;;;5.60;77.46
72308;BME280;60257;42.638;23.376;2023-03-01T02:31:28;95031.91;;;5.59;77.17
72308;BME280;60257;42.638;23.376;2023-03-01T02:34:17;95022.34;;;5.62;77.00
72308;BME280;60257;42.638;23.376;2023-03-01T02:36:55;95035.34;;;5.65;77.27
72308;BME280;60257;42.638;23.376;2023-03-01T02:39:25;95034.88;;;5.49;77.69
72308;BME280;60257;42.638;23.376;2023-03-01T02:41:53;95021.94;;;5.55;77.70
72308;BME280;60257;42.638;23.376;2023-03-01T02:44:20;95036.75;;;5.62;77.29
72308;BME280;60257;42.638;23.376;2023-03-01T02:46:50;95035.25;;;5.56;77.59
72308;BME280;60257;42.638;23.376;2023-03-01T02:49:24;95030.22;;;5.50;77.88
72308;BME280;60257;42.638;23.376;2023-03-01T02:52:10;95018.84;;;5.48;77.78
72308;BME280;60257;42.638;23.376;2023-03-01T02:57:31;95023.75;;;5.59;77.99
72308;BME280;60257;42.638;23.376;2023-03-01T03:00:05;95022.75;;;5.55;77.79
72308;BME280;60257;42.638;23.376;2023-03-01T03:02:35;95020.53;;;5.57;77.85
72308;BME280;60257;42.638;23.376;2023-03-01T03:05:12;95034.69;;;5.68;77.41
72308;BME280;60257;42.638;23.376;2023-03-01T03:07:40;95019.31;;;5.63;77.64
72308;BME280;60257;42.638;23.376;2023-03-01T03:10:09;95017.00;;;5.57;77.50
72308;BME280;60257;42.638;23.376;2023-03-01T03:12:37;95025.56;;;5.50;77.91
72308;BME280;60257;42.638;23.376;2023-03-01T03:15:04;95020.75;;;5.47;78.11
72308;BME280;60257;42.638;23.376;2023-03-01T03:17:46;95019.94;;;5.47;78.26
72308;BME280;60257;42.638;23.376;2023-03-01T03:20:15;95026.59;;;5.54;78.19
72308;BME280;60257;42.638;23.376;2023-03-01T03:22:45;95028.50;;;5.54;78.09
72308;BME280;60257;42.638;23.376;2023-03-01T03:25:11;95019.28;;;5.41;78.33
72308;BME280;60257;42.638;23.376;2023-03-01T03:27:37;95028.91;;;5.47;78.55
72308;BME280;60257;42.638;23.376;2023-03-01T03:30:05;95026.50;;;5.46;78.09
72308;BME280;60257;42.638;23.376;2023-03-01T03:32:38;95034.53;;;5.51;78.20
72308;BME280;60257;42.638;23.376;2023-03-01T03:35:05;95024.19;;;5.39;78.31
72308;BME280;60257;42.638;23.376;2023-03-01T03:37:40;95023.09;;;5.40;78.57
72308;BME280;60257;42.638;23.376;2023-03-01T03:40:25;95032.38;;;5.39;78.68
72308;BME280;60257;42.638;23.376;2023-03-01T03:42:50;95024.00;;;5.35;78.21
72308;BME280;60257;42.638;23.376;2023-03-01T03:45:17;95037.75;;;5.53;78.18
72308;BME280;60257;42.638;23.376;2023-03-01T03:47:43;95037.63;;;5.58;77.86
72308;BME280;60257;42.638;23.376;2023-03-01T03:50:14;95043.84;;;5.50;77.89
72308;BME280;60257;42.638;23.376;2023-03-01T03:52:39;95042.53;;;5.47;78.00
72308;BME280;60257;42.638;23.376;2023-03-01T03:55:07;95043.03;;;5.49;77.98
72308;BME280;60257;42.638;23.376;2023-03-01T03:57:37;95028.72;;;5.43;77.95
72308;BME280;60257;42.638;23.376;2023-03-01T04:00:03;95034.91;;;5.58;77.70
72308;BME280;60257;42.638;23.376;2023-03-01T04:02:47;95034.38;;;5.47;77.62
72308;BME280;60257;42.638;23.376;2023-03-01T04:05:15;95040.69;;;5.56;77.56
72308;BME280;60257;42.638;23.376;2023-03-01T04:07:42;95040.88;;;5.60;77.55
72308;BME280;60257;42.638;23.376;2023-03-01T04:10:17;95029.59;;;5.53;77.68
72308;BME280;60257;42.638;23.376;2023-03-01T04:12:43;95017.97;;;5.38;77.81
72308;BME280;60257;42.638;23.376;2023-03-01T04:15:10;95044.13;;;5.48;77.86
72308;BME280;60257;42.638;23.376;2023-03-01T04:17:43;95045.75;;;5.49;77.80
72308;BME280;60257;42.638;23.376;2023-03-01T04:20:10;95042.09;;;5.54;77.74
72308;BME280;60257;42.638;23.376;2023-03-01T04:22:37;95036.88;;;5.57;77.33
72308;BME280;60257;42.638;23.376;2023-03-01T04:25:03;95025.50;;;5.41;77.60
72308;BME280;60257;42.638;23.376;2023-03-01T04:27:30;95041.41;;;5.48;77.63
72308;BME280;60257;42.638;23.376;2023-03-01T04:29:55;95040.91;;;5.46;77.88
72308;BME280;60257;42.638;23.376;2023-03-01T04:32:21;95052.72;;;5.41;78.08
72308;BME280;60257;42.638;23.376;2023-03-01T04:34:46;95039.31;;;5.31;78.29
72308;BME280;60257;42.638;23.376;2023-03-01T04:37:11;95029.25;;;5.32;77.95
72308;BME280;60257;42.638;23.376;2023-03-01T04:39:37;95031.25;;;5.40;77.87
72308;BME280;60257;42.638;23.376;2023-03-01T04:42:14;95044.63;;;5.50;78.08
72308;BME280;60257;42.638;23.376;2023-03-01T04:44:39;95042.69;;;5.51;77.76
72308;BME280;60257;42.638;23.376;2023-03-01T04:47:05;95039.00;;;5.47;77.96
72308;BME280;60257;42.638;23.376;2023-03-01T04:49:31;95042.31;;;5.57;77.58
72308;BME280;60257;42.638;23.376;2023-03-01T04:51:57;95032.19;;;5.58;77.46
72308;BME280;60257;42.638;23.376;2023-03-01T04:54:34;95028.28;;;5.50;77.74
72308;BME280;60257;42.638;23.376;2023-03-01T04:57:00;95032.53;;;5.42;78.05
72308;BME280;60257;42.638;23.376;2023-03-01T04:59:27;95035.69;;;5.50;78.06
72308;BME280;60257;42.638;23.376;2023-03-01T05:01:54;95032.97;;;5.50;78.07
72308;BME280;60257;42.638;23.376;2023-03-01T05:04:23;95036.75;;;5.62;77.76
72308;BME280;60257;42.638;23.376;2023-03-01T05:06:49;95036.81;;;5.71;77.50
72308;BME280;60257;42.638;23.376;2023-03-01T05:09:15;95032.09;;;5.63;77.69
72308;BME280;60257;42.638;23.376;2023-03-01T05:11:41;95030.19;;;5.63;77.75
72308;BME280;60257;42.638;23.376;2023-03-01T05:14:08;95052.84;;;5.72;77.47
72308;BME280;60257;42.638;23.376;2023-03-01T05:16:34;95020.03;;;5.55;77.27
72308;BME280;60257;42.638;23.376;2023-03-01T05:19:02;95040.16;;;5.68;77.37
72308;BME280;60257;42.638;23.376;2023-03-01T05:21:37;95024.81;;;5.72;76.90
72308;BME280;60257;42.638;23.376;2023-03-01T05:24:23;95038.81;;;5.65;77.06
72308;BME280;60257;42.638;23.376;2023-03-01T05:26:49;95025.50;;;5.77;76.27
72308;BME280;60257;42.638;23.376;2023-03-01T05:29:14;95032.06;;;5.76;76.08
72308;BME280;60257;42.638;23.376;2023-03-01T05:31:40;95038.81;;;5.79;75.56
72308;BME280;60257;42.638;23.376;2023-03-01T05:34:06;95035.81;;;5.67;75.94
72308;BME280;60257;42.638;23.376;2023-03-01T05:36:31;95038.72;;;5.70;76.19
72308;BME280;60257;42.638;23.376;2023-03-01T05:38:57;95031.81;;;5.64;76.67
72308;BME280;60257;42.638;23.376;2023-03-01T05:41:22;95021.16;;;5.54;76.76
72308;BME280;60257;42.638;23.376;2023-03-01T05:43:47;95042.47;;;5.61;77.13
72308;BME280;60257;42.638;23.376;2023-03-01T05:46:13;95039.47;;;5.62;76.67
72308;BME280;60257;42.638;23.376;2023-03-01T05:48:40;95043.38;;;5.70;76.46
72308;BME280;60257;42.638;23.376;2023-03-01T05:51:05;95034.03;;;5.62;76.42
72308;BME280;60257;42.638;23.376;2023-03-01T05:53:31;95047.56;;;5.76;76.20
72308;BME280;60257;42.638;23.376;2023-03-01T05:55:56;95051.91;;;5.77;75.79
72308;BME280;60257;42.638;23.376;2023-03-01T05:58:22;95053.31;;;5.74;75.96
72308;BME280;60257;42.638;23.376;2023-03-01T06:00:48;95049.22;;;5.63;76.09
72308;BME280;60257;42.638;23.376;2023-03-01T06:03:16;95059.69;;;5.70;76.23
72308;BME280;60257;42.638;23.376;2023-03-01T06:05:42;95054.16;;;5.61;76.58
72308;BME280;60257;42.638;23.376;2023-03-01T06:08:10;95059.69;;;5.70;76.43
72308;BME280;60257;42.638;23.376;2023-03-01T06:10:36;95058.38;;;5.67;76.47
72308;BME280;60257;42.638;23.376;2023-03-01T06:13:02;95048.72;;;5.61;76.64
72308;BME280;60257;42.638;23.376;2023-03-01T06:15:28;95068.25;;;5.77;76.59
72308;BME280;60257;42.638;23.376;2023-03-01T06:17:55;95073.31;;;5.70;76.94
72308;BME280;60257;42.638;23.376;2023-03-01T06:20:25;95078.22;;;5.68;76.98
72308;BME280;60257;42.638;23.376;2023-03-01T06:22:52;95078.22;;;5.68;77.00
72308;BME280;60257;42.638;23.376;2023-03-01T06:25:24;95074.09;;;5.70;76.80
72308;BME280;60257;42.638;23.376;2023-03-01T06:27:50;95067.06;;;5.69;76.24
72308;BME280;60257;42.638;23.376;2023-03-01T06:30:19;95073.25;;;5.84;75.95
72308;BME280;60257;42.638;23.376;2023-03-01T06:32:45;95075.00;;;5.79;75.39
72308;BME280;60257;42.638;23.376;2023-03-01T06:35:12;95067.13;;;5.78;75.54
72308;BME280;60257;42.638;23.376;2023-03-01T06:37:38;95062.28;;;5.75;76.43
72308;BME280;60257;42.638;23.376;2023-03-01T06:40:04;95074.78;;;5.90;76.66
72308;BME280;60257;42.638;23.376;2023-03-01T06:42:36;95086.16;;;5.92;76.48
72308;BME280;60257;42.638;23.376;2023-03-01T06:45:02;95084.25;;;5.92;76.36
72308;BME280;60257;42.638;23.376;2023-03-01T06:47:28;95074.47;;;5.91;76.47
72308;BME280;60257;42.638;23.376;2023-03-01T06:49:53;95067.00;;;5.83;76.17
72308;BME280;60257;42.638;23.376;2023-03-01T06:52:32;95082.63;;;5.91;76.01
72308;BME280;60257;42.638;23.376;2023-03-01T06:54:57;95083.94;;;5.94;76.07
72308;BME280;60257;42.638;23.376;2023-03-01T06:57:23;95079.41;;;5.89;76.08
72308;BME280;60257;42.638;23.376;2023-03-01T06:59:48;95082.28;;;5.70;77.00
72308;BME280;60257;42.638;23.376;2023-03-01T07:02:14;95074.19;;;5.65;76.54
72308;BME280;60257;42.638;23.376;2023-03-01T07:04:41;95089.50;;;5.75;76.46
72308;BME280;60257;42.638;23.376;2023-03-01T07:07:06;95076.69;;;5.75;76.24
72308;BME280;60257;42.638;23.376;2023-03-01T07:09:32;95082.66;;;5.77;76.23
72308;BME280;60257;42.638;23.376;2023-03-01T07:11:57;95063.00;;;5.67;76.43
72308;BME280;60257;42.638;23.376;2023-03-01T07:14:23;95078.53;;;5.80;76.08
72308;BME280;60257;42.638;23.376;2023-03-01T07:16:53;95083.16;;;5.93;76.08
72308;BME280;60257;42.638;23.376;2023-03-01T07:19:18;95055.13;;;5.79;76.05
72308;BME280;60257;42.638;23.376;2023-03-01T07:21:44;95072.63;;;6.00;75.66
72308;BME280;60257;42.638;23.376;2023-03-01T07:24:10;95067.78;;;5.97;75.14
72308;BME280;60257;42.638;23.376;2023-03-01T07:26:35;95066.97;;;6.10;76.36
72308;BME280;60257;42.638;23.376;2023-03-01T07:29:03;95072.19;;;6.29;74.67
72308;BME280;60257;42.638;23.376;2023-03-01T07:31:29;95066.66;;;6.34;74.25
72308;BME280;60257;42.638;23.376;2023-03-01T07:33:55;95068.28;;;6.44;73.90
72308;BME280;60257;42.638;23.376;2023-03-01T07:36:21;95058.88;;;6.28;74.94
72308;BME280;60257;42.638;23.376;2023-03-01T07:38:46;95030.84;;;6.27;73.75
72308;BME280;60257;42.638;23.376;2023-03-01T07:41:12;95057.44;;;6.52;73.07
72308;BME280;60257;42.638;23.376;2023-03-01T07:43:37;95066.19;;;6.63;73.17
72308;BME280;60257;42.638;23.376;2023-03-01T07:46:03;95074.75;;;6.79;72.28
72308;BME280;60257;42.638;23.376;2023-03-01T07:48:30;95057.59;;;6.78;72.13
72308;BME280;60257;42.638;23.376;2023-03-01T07:51:00;95057.59;;;6.78;72.50
72308;BME280;60257;42.638;23.376;2023-03-01T07:53:26;95045.88;;;6.78;72.08
72308;BME280;60257;42.638;23.376;2023-03-01T07:56:09;95045.75;;;6.83;72.03
72308;BME280;60257;42.638;23.376;2023-03-01T07:58:36;95055.41;;;6.89;72.14
72308;BME280;60257;42.638;23.376;2023-03-01T08:01:03;95047.53;;;6.87;71.34
72308;BME280;60257;42.638;23.376;2023-03-01T08:03:29;95051.97;;;6.75;71.84
72308;BME280;60257;42.638;23.376;2023-03-01T08:05:55;95041.69;;;6.72;71.29
72308;BME280;60257;42.638;23.376;2023-03-01T08:08:20;95049.16;;;6.88;70.86
72308;BME280;60257;42.638;23.376;2023-03-01T08:10:46;95046.09;;;6.90;70.34
72308;BME280;60257;42.638;23.376;2023-03-01T08:13:11;95037.59;;;6.91;69.42
72308;BME280;60257;42.638;23.376;2023-03-01T08:15:36;95040.38;;;7.00;69.50
72308;BME280;60257;42.638;23.376;2023-03-01T08:18:02;95039.09;;;7.06;69.13
72308;BME280;60257;42.638;23.376;2023-03-01T08:20:27;95049.19;;;7.06;68.99
72308;BME280;60257;42.638;23.376;2023-03-01T08:22:53;95033.19;;;7.13;69.35
72308;BME280;60257;42.638;23.376;2023-03-01T08:25:18;95047.44;;;7.01;68.40
72308;BME280;60257;42.638;23.376;2023-03-01T08:27:44;95044.50;;;6.89;69.39
72308;BME280;60257;42.638;23.376;2023-03-01T08:30:09;95050.50;;;7.08;69.19
72308;BME280;60257;42.638;23.376;2023-03-01T08:32:39;95044.63;;;7.23;69.23
72308;BME280;60257;42.638;23.376;2023-03-01T08:35:05;95032.28;;;7.26;68.32
72308;BME280;60257;42.638;23.376;2023-03-01T08:37:30;95037.28;;;7.41;68.02
72308;BME280;60257;42.638;23.376;2023-03-01T08:39:59;95039.69;;;7.51;67.43
72308;BME280;60257;42.638;23.376;2023-03-01T08:42:25;95032.94;;;7.31;67.70
72308;BME280;60257;42.638;23.376;2023-03-01T08:44:51;95043.72;;;7.45;67.79
72308;BME280;60257;42.638;23.376;2023-03-01T08:47:16;95028.34;;;7.58;67.03
72308;BME280;60257;42.638;23.376;2023-03-01T08:49:42;95038.00;;;7.72;66.52
72308;BME280;60257;42.638;23.376;2023-03-01T08:52:07;95042.16;;;7.79;66.61
72308;BME280;60257;42.638;23.376;2023-03-01T08:54:33;95048.75;;;7.86;65.96
72308;BME280;60257;42.638;23.376;2023-03-01T08:57:01;95039.78;;;8.03;65.85
72308;BME280;60257;42.638;23.376;2023-03-01T08:59:26;95042.97;;;7.88;66.02
72308;BME280;60257;42.638;23.376;2023-03-01T09:01:52;95034.75;;;8.13;65.28
72308;BME280;60257;42.638;23.376;2023-03-01T09:04:18;95043.94;;;7.92;66.28
72308;BME280;60257;42.638;23.376;2023-03-01T09:06:43;95035.09;;;8.03;65.73
72308;BME280;60257;42.638;23.376;2023-03-01T09:09:16;95024.19;;;7.95;65.41
72308;BME280;60257;42.638;23.376;2023-03-01T09:11:43;95024.81;;;7.92;65.73
72308;BME280;60257;42.638;23.376;2023-03-01T09:14:12;94969.88;;;7.59;64.93
72308;BME280;60257;42.638;23.376;2023-03-01T09:16:37;95046.19;;;8.07;64.73
72308;BME280;60257;42.638;23.376;2023-03-01T09:19:03;95038.16;;;7.93;65.21
72308;BME280;60257;42.638;23.376;2023-03-01T09:21:28;95036.88;;;7.99;64.89
72308;BME280;60257;42.638;23.376;2023-03-01T09:23:55;95022.75;;;7.97;64.96
72308;BME280;60257;42.638;23.376;2023-03-01T09:26:22;95027.06;;;7.90;65.35
72308;BME280;60257;42.638;23.376;2023-03-01T09:28:53;95022.88;;;8.09;65.24
72308;BME280;60257;42.638;23.376;2023-03-01T09:31:20;95031.06;;;8.27;64.69
72308;BME280;60257;42.638;23.376;2023-03-01T09:33:47;95031.88;;;8.27;64.40
72308;BME280;60257;42.638;23.376;2023-03-01T09:36:21;95022.09;;;8.18;64.55
72308;BME280;60257;42.638;23.376;2023-03-01T09:38:47;95018.72;;;8.21;64.32
72308;BME280;60257;42.638;23.376;2023-03-01T09:43:53;95019.03;;;8.02;64.23
72308;BME280;60257;42.638;23.376;2023-03-01T09:46:25;95019.53;;;8.04;64.83
72308;BME280;60257;42.638;23.376;2023-03-01T09:49:05;94982.41;;;7.86;64.69
72308;BME280;60257;42.638;23.376;2023-03-01T09:51:36;95003.78;;;8.09;64.45
72308;BME280;60257;42.638;23.376;2023-03-01T09:54:03;95013.88;;;8.09;64.75
72308;BME280;60257;42.638;23.376;2023-03-01T09:56:36;95009.09;;;7.89;65.25
72308;BME280;60257;42.638;23.376;2023-03-01T10:07:21;94994.16;;;7.86;65.83
72308;BME280;60257;42.638;23.376;2023-03-01T10:09:51;94984.97;;;7.99;65.28
72308;BME280;60257;42.638;23.376;2023-03-01T10:12:30;94993.47;;;8.15;65.18
72308;BME280;60257;42.638;23.376;2023-03-01T10:15:22;95002.16;;;8.08;65.09
72308;BME280;60257;42.638;23.376;2023-03-01T10:17:57;95000.38;;;8.21;64.94
72308;BME280;60257;42.638;23.376;2023-03-01T10:20:30;95001.53;;;8.20;65.17
72308;BME280;60257;42.638;23.376;2023-03-01T10:22:58;94996.50;;;8.22;65.14
72308;BME280;60257;42.638;23.376;2023-03-01T10:28:31;94970.66;;;8.28;64.52
72308;BME280;60257;42.638;23.376;2023-03-01T10:30:59;94974.66;;;8.39;64.52
72308;BME280;60257;42.638;23.376;2023-03-01T10:33:37;94982.72;;;8.19;65.18
72308;BME280;60257;42.638;23.376;2023-03-01T10:36:05;94965.50;;;8.18;65.11
72308;BME280;60257;42.638;23.376;2023-03-01T10:38:56;94959.88;;;8.23;64.59
72308;BME280;60257;42.638;23.376;2023-03-01T10:41:23;94965.19;;;8.20;64.33
72308;BME280;60257;42.638;23.376;2023-03-01T10:43:54;94964.56;;;8.31;63.51
72308;BME280;60257;42.638;23.376;2023-03-01T10:46:30;94961.66;;;8.19;64.17
72308;BME280;60257;42.638;23.376;2023-03-01T10:49:22;94958.44;;;8.26;64.10
72308;BME280;60257;42.638;23.376;2023-03-01T10:51:52;94963.41;;;8.24;64.04
72308;BME280;60257;42.638;23.376;2023-03-01T10:56:57;94948.47;;;8.21;64.27
72308;BME280;60257;42.638;23.376;2023-03-01T10:59:31;94956.66;;;8.38;64.19
72308;BME280;60257;42.638;23.376;2023-03-01T11:04:28;94959.22;;;8.43;63.63
72308;BME280;60257;42.638;23.376;2023-03-01T11:07:01;94940.41;;;8.42;63.62
72308;BME280;60257;42.638;23.376;2023-03-01T11:09:31;94955.25;;;8.70;62.79
72308;BME280;60257;42.638;23.376;2023-03-01T11:12:05;94957.69;;;8.63;63.08
72308;BME280;60257;42.638;23.376;2023-03-01T11:14:37;94962.53;;;8.66;62.87
72308;BME280;60257;42.638;23.376;2023-03-01T11:17:24;94955.13;;;8.67;63.33
72308;BME280;60257;42.638;23.376;2023-03-01T11:22:47;94952.78;;;8.48;63.60
72308;BME280;60257;42.638;23.376;2023-03-01T11:25:15;94958.06;;;8.44;63.72
72308;BME280;60257;42.638;23.376;2023-03-01T11:27:44;94951.38;;;8.16;64.92
72308;BME280;60257;42.638;23.376;2023-03-01T11:35:44;94945.91;;;8.33;65.03
72308;BME280;60257;42.638;23.376;2023-03-01T11:38:22;94954.47;;;8.70;64.05
72308;BME280;60257;42.638;23.376;2023-03-01T11:40:50;94944.00;;;8.72;63.23
72308;BME280;60257;42.638;23.376;2023-03-01T11:43:26;94940.22;;;8.85;63.31
72308;BME280;60257;42.638;23.376;2023-03-01T11:51:55;94930.50;;;9.05;62.17
72308;BME280;60257;42.638;23.376;2023-03-01T12:12:28;94913.56;;;9.32;61.02
72308;BME280;60257;42.638;23.376;2023-03-01T12:26:20;94899.69;;;9.58;59.61
72308;BME280;60257;42.638;23.376;2023-03-01T12:31:57;94897.47;;;9.72;59.36
72308;BME280;60257;42.638;23.376;2023-03-01T12:34:59;94900.94;;;9.40;59.56
72308;BME280;60257;42.638;23.376;2023-03-01T12:43:21;94890.41;;;9.50;59.40
72308;BME280;60257;42.638;23.376;2023-03-01T12:46:27;94889.47;;;9.67;59.38
72308;BME280;60257;42.638;23.376;2023-03-01T12:49:13;94887.03;;;9.86;59.23
72308;BME280;60257;42.638;23.376;2023-03-01T12:51:46;94888.19;;;9.64;59.65
72308;BME280;60257;42.638;23.376;2023-03-01T12:54:19;94885.16;;;9.78;60.05
72308;BME280;60257;42.638;23.376;2023-03-01T12:56:47;94868.81;;;9.70;59.67
72308;BME280;60257;42.638;23.376;2023-03-01T13:07:16;94883.34;;;9.49;60.66
72308;BME280;60257;42.638;23.376;2023-03-01T13:17:51;94882.97;;;9.30;60.72
72308;BME280;60257;42.638;23.376;2023-03-01T13:20:33;94890.41;;;9.50;60.51
72308;BME280;60257;42.638;23.376;2023-03-01T13:23:27;94893.09;;;9.59;59.90
72308;BME280;60257;42.638;23.376;2023-03-01T13:26:16;94890.53;;;9.54;60.74
72308;BME280;60257;42.638;23.376;2023-03-01T13:33:50;94900.78;;;9.15;62.23
72308;BME280;60257;42.638;23.376;2023-03-01T13:41:48;94889.00;;;9.23;62.10
72308;BME280;60257;42.638;23.376;2023-03-01T13:46:45;94884.31;;;9.24;62.21
72308;BME280;60257;42.638;23.376;2023-03-01T13:49:18;94876.28;;;8.98;62.92
72308;BME280;60257;42.638;23.376;2023-03-01T13:51:49;94885.66;;;8.97;63.71
72308;BME280;60257;42.638;23.376;2023-03-01T13:54:32;94876.28;;;8.98;63.24
72308;BME280;60257;42.638;23.376;2023-03-01T13:57:01;94876.16;;;8.95;63.44
72308;BME280;60257;42.638;23.376;2023-03-01T13:59:27;94876.50;;;9.14;63.40
72308;BME280;60257;42.638;23.376;2023-03-01T14:01:59;94877.38;;;9.06;63.17
72308;BME280;60257;42.638;23.376;2023-03-01T14:04:32;94884.44;;;9.07;63.31
72308;BME280;60257;42.638;23.376;2023-03-01T14:07:21;94880.28;;;9.01;63.60
72308;BME280;60257;42.638;23.376;2023-03-01T14:09:52;94873.69;;;9.02;63.59
72308;BME280;60257;42.638;23.376;2023-03-01T14:20:42;94890.53;;;9.12;63.18
72308;BME280;60257;42.638;23.376;2023-03-01T14:23:12;94872.16;;;8.92;63.36
72308;BME280;60257;42.638;23.376;2023-03-01T14:30:49;94856.03;;;8.70;63.50
72308;BME280;60257;42.638;23.376;2023-03-01T14:33:24;94874.13;;;8.54;64.70
72308;BME280;60257;42.638;23.376;2023-03-01T14:36:09;94881.41;;;8.41;65.27
72308;BME280;60257;42.638;23.376;2023-03-01T14:38:41;94877.72;;;8.37;65.39
72308;BME280;60257;42.638;23.376;2023-03-01T14:43:33;94854.81;;;8.12;65.89
72308;BME280;60257;42.638;23.376;2023-03-01T14:46:00;94882.13;;;8.21;66.26
72308;BME280;60257;42.638;23.376;2023-03-01T14:48:28;94877.91;;;8.23;65.96
72308;BME280;60257;42.638;23.376;2023-03-01T14:50:54;94880.16;;;8.21;66.00
72308;BME280;60257;42.638;23.376;2023-03-01T14:53:29;94871.34;;;8.16;65.57
72308;BME280;60257;42.638;23.376;2023-03-01T14:55:59;94880.38;;;8.07;66.09
72308;BME280;60257;42.638;23.376;2023-03-01T14:58:27;94882.81;;;7.92;67.03
72308;BME280;60257;42.638;23.376;2023-03-01T15:01:02;94873.06;;;7.73;67.73
72308;BME280;60257;42.638;23.376;2023-03-01T15:03:42;94879.59;;;7.98;66.59
72308;BME280;60257;42.638;23.376;2023-03-01T15:06:10;94874.47;;;7.97;66.85
72308;BME280;60257;42.638;23.376;2023-03-01T15:08:42;94862.72;;;8.05;72.28
72308;BME280;60257;42.638;23.376;2023-03-01T15:13:38;94863.69;;;7.92;67.13
72308;BME280;60257;42.638;23.376;2023-03-01T15:16:20;94865.81;;;7.78;67.29
72308;BME280;60257;42.638;23.376;2023-03-01T15:18:50;94870.69;;;7.55;68.34
72308;BME280;60257;42.638;23.376;2023-03-01T15:21:19;94863.47;;;7.42;68.82